Time;durP1;ratioP1;P1;durP2;ratioP2;P2;SDS_P1;SDS_P2;PMS_P1;PMS_P2;Temp;Humidity;BMP_temperature;BMP_pressure;BME280_temperature;BME280_humidity;BME280_pressure;Samples;Min_cycle;Max_cycle;Signal;HPM_P1;HPM_P2
2023/03/20 00:01:57;;;;;;;35.30;24.50;;;;;;;3.14;76.62;100207.65;106155;1257;74088;-71
2023/03/20 00:04:25;;;;;;;35.60;24.10;;;;;;;3.10;76.60;100203.52;106198;1254;71559;-73
2023/03/20 00:06:53;;;;;;;33.00;23.10;;;;;;;3.05;76.76;100200.59;106199;1254;73492;-71
2023/03/20 00:09:20;;;;;;;30.40;20.00;;;;;;;2.97;76.99;100197.30;105960;1254;60397;-72
2023/03/20 00:12:01;;;;;;;31.50;22.40;;;;;;;2.89;77.24;100204.51;106481;1254;59816;-73
2023/03/20 00:14:30;;;;;;;30.50;21.10;;;;;;;2.90;77.14;100195.11;106009;1258;73238;-75
2023/03/20 00:16:59;;;;;;;31.10;20.50;;;;;;;2.93;77.16;100193.16;105979;1254;69813;-71
2023/03/20 00:19:31;;;;;;;28.90;19.50;;;;;;;2.88;77.53;100187.58;107468;1253;72719;-74
2023/03/20 00:22:05;;;;;;;29.90;20.20;;;;;;;2.83;77.71;100184.98;108129;1254;59685;-72
2023/03/20 00:24:32;;;;;;;30.70;21.20;;;;;;;2.82;77.92;100183.14;106101;1253;60344;-72
2023/03/20 00:27:17;;;;;;;34.30;24.10;;;;;;;2.74;78.01;100182.59;106106;1253;71922;-74
2023/03/20 00:29:45;;;;;;;34.80;23.60;;;;;;;2.65;77.89;100178.30;106331;1253;71419;-73
2023/03/20 00:32:13;;;;;;;34.70;22.90;;;;;;;2.59;77.98;100173.71;106764;1255;73970;-73
2023/03/20 00:34:41;;;;;;;31.80;20.80;;;;;;;2.53;77.85;100172.52;106213;1253;62295;-74
2023/03/20 00:37:11;;;;;;;30.70;20.10;;;;;;;2.57;77.84;100166.29;106574;1253;61266;-79
2023/03/20 00:39:39;;;;;;;31.00;20.80;;;;;;;2.61;77.66;100169.21;106536;1253;73746;-71
2023/03/20 00:42:19;;;;;;;31.80;20.00;;;;;;;2.51;77.88;100170.88;106368;1256;71229;-72
2023/03/20 00:44:52;;;;;;;26.70;19.50;;;;;;;2.40;78.11;100168.54;106129;1256;74010;-73
2023/03/20 00:47:23;;;;;;;64.20;33.90;;;;;;;2.31;78.45;100167.76;105907;1254;60781;-74
2023/03/20 00:49:52;;;;;;;87.10;42.70;;;;;;;2.21;78.50;100164.09;106000;1253;59614;-72
2023/03/20 00:52:26;;;;;;;116.90;52.10;;;;;;;2.10;78.84;100164.98;105886;1257;74016;-74
2023/03/20 00:54:54;;;;;;;80.40;39.40;;;;;;;2.00;79.11;100159.14;106023;1254;71286;-75
2023/03/20 00:57:20;;;;;;;77.00;36.00;;;;;;;1.98;79.45;100158.41;105807;1255;71254;-74
2023/03/20 01:00:03;;;;;;;62.40;31.40;;;;;;;2.10;79.60;100155.90;105974;1254;61757;-76
2023/03/20 01:02:31;;;;;;;53.40;30.20;;;;;;;2.22;79.36;100154.02;106001;1254;60630;-73
2023/03/20 01:05:00;;;;;;;43.80;25.20;;;;;;;2.22;79.25;100157.00;105748;1254;72819;-75
2023/03/20 01:07:28;;;;;;;43.40;26.90;;;;;;;2.16;79.17;100157.90;106021;1254;70807;-72
2023/03/20 01:09:55;;;;;;;37.90;24.40;;;;;;;2.08;79.30;100159.82;106003;1259;73576;-72
2023/03/20 01:12:22;;;;;;;38.10;25.50;;;;;;;1.99;79.38;100162.88;107502;1252;59493;-72
2023/03/20 01:14:55;;;;;;;35.50;24.00;;;;;;;1.89;79.47;100158.34;108631;1253;59527;-72
2023/03/20 01:17:24;;;;;;;44.00;24.80;;;;;;;1.81;79.94;100159.36;107007;1254;71991;-74
2023/03/20 01:19:51;;;;;;;33.30;22.40;;;;;;;1.86;79.88;100157.65;105936;1251;71480;-72
2023/03/20 01:22:18;;;;;;;35.20;24.30;;;;;;;1.93;79.71;100159.64;105787;1259;73994;-73
2023/03/20 01:24:46;;;;;;;33.80;24.80;;;;;;;1.89;79.82;100156.21;106029;1256;60036;-74
2023/03/20 01:27:17;;;;;;;32.40;22.30;;;;;;;1.83;79.98;100157.37;105843;1254;60992;-73
2023/03/20 01:29:44;;;;;;;30.50;21.00;;;;;;;1.74;80.36;100156.68;105791;1253;72974;-74
2023/03/20 01:32:13;;;;;;;35.90;23.80;;;;;;;1.66;80.52;100153.52;105869;1256;71460;-72
2023/03/20 01:34:43;;;;;;;28.80;19.90;;;;;;;1.60;80.65;100153.91;105877;1259;73467;-72
2023/03/20 01:37:12;;;;;;;29.80;20.60;;;;;;;1.54;80.65;100152.27;105996;1256;60682;-72
2023/03/20 01:39:39;;;;;;;28.40;19.00;;;;;;;1.49;80.93;100152.61;105652;1254;61353;-72
2023/03/20 01:42:11;;;;;;;30.70;21.10;;;;;;;1.55;81.00;100145.17;105847;1259;74726;-71
2023/03/20 01:44:38;;;;;;;30.00;20.80;;;;;;;1.67;81.07;100150.38;105725;1254;70997;-71
2023/03/20 01:47:13;;;;;;;29.70;20.70;;;;;;;1.67;81.10;100148.23;105868;1254;72320;-72
2023/03/20 01:50:17;;;;;;;34.30;22.60;;;;;;;1.63;81.05;100149.23;105803;1257;60572;-75
2023/03/20 01:52:46;;;;;;;34.10;22.60;;;;;;;1.57;81.23;100151.89;105786;1254;61416;-73
2023/03/20 01:55:13;;;;;;;34.90;24.90;;;;;;;1.52;81.25;100149.57;105978;1256;74589;-72
2023/03/20 01:57:42;;;;;;;32.70;22.90;;;;;;;1.48;81.27;100150.74;105733;1254;71511;-70
2023/03/20 02:00:13;;;;;;;32.90;23.50;;;;;;;1.44;81.50;100150.98;105922;1254;73531;-74
2023/03/20 02:02:44;;;;;;;30.50;21.40;;;;;;;1.52;81.28;100154.27;106500;1256;60539;-76
2023/03/20 02:05:12;;;;;;;30.10;19.90;;;;;;;1.60;80.97;100161.96;105908;1252;61301;-74
2023/03/20 02:07:39;;;;;;;29.90;20.80;;;;;;;1.56;81.19;100164.86;107357;1254;74803;-73
2023/03/20 02:10:14;;;;;;;30.00;19.90;;;;;;;1.49;81.40;100162.52;108085;1254;71357;-75
2023/03/20 02:13:05;;;;;;;30.50;21.00;;;;;;;1.44;81.47;100163.92;106094;1254;72708;-72
2023/03/20 02:15:56;;;;;;;31.50;23.00;;;;;;;1.38;81.81;100158.34;105976;1252;60472;-74
2023/03/20 02:18:44;;;;;;;29.00;21.00;;;;;;;1.36;82.13;100161.23;105892;1252;61357;-72
2023/03/20 02:21:35;;;;;;;32.80;20.10;;;;;;;1.34;82.03;100163.66;105875;1255;73880;-74
2023/03/20 02:24:08;;;;;;;28.80;20.10;;;;;;;1.45;81.73;100159.46;105808;1259;71554;-75
2023/03/20 02:26:43;;;;;;;29.90;21.30;;;;;;;1.52;81.48;100157.60;105824;1259;73385;-74
2023/03/20 02:29:22;;;;;;;32.10;22.20;;;;;;;1.48;81.73;100152.77;105868;1260;60540;-74
2023/03/20 02:32:07;;;;;;;36.40;24.20;;;;;;;1.45;81.97;100156.30;105805;1254;60370;-70
2023/03/20 02:34:43;;;;;;;35.90;25.50;;;;;;;1.41;82.01;100154.83;105913;1254;72973;-73
2023/03/20 02:37:49;;;;;;;36.30;24.40;;;;;;;1.35;82.06;100150.34;105753;1254;71345;-73
2023/03/20 02:40:22;;;;;;;37.80;24.80;;;;;;;1.29;82.45;100145.15;105606;1254;72522;-75
2023/03/20 02:42:57;;;;;;;37.10;23.10;;;;;;;1.25;82.58;100140.65;105815;1254;61866;-72
2023/03/20 02:45:28;;;;;;;34.30;23.80;;;;;;;1.36;82.56;100134.38;106006;1254;61386;-74
2023/03/20 02:48:18;;;;;;;31.70;22.00;;;;;;;1.48;82.36;100131.02;105900;1258;75668;-74
2023/03/20 02:51:08;;;;;;;36.60;25.00;;;;;;;1.47;82.38;100128.46;105902;1255;71095;-71
2023/03/20 02:53:39;;;;;;;35.60;24.90;;;;;;;1.43;82.40;100122.21;105871;1254;72878;-75
2023/03/20 02:56:19;;;;;;;34.00;24.20;;;;;;;1.40;82.55;100114.79;105978;1254;60595;-75
2023/03/20 02:58:51;;;;;;;34.10;23.40;;;;;;;1.38;82.52;100111.92;105972;1254;60454;-77
2023/03/20 03:01:27;;;;;;;37.50;24.50;;;;;;;1.31;82.37;100113.05;106873;1252;74847;-73
2023/03/20 03:03:57;;;;;;;37.90;24.30;;;;;;;1.26;82.46;100111.52;108781;1253;69930;-71
2023/03/20 03:06:30;;;;;;;32.10;22.30;;;;;;;1.34;82.31;100113.91;107210;1257;72622;-75
2023/03/20 03:09:19;;;;;;;33.50;24.10;;;;;;;1.45;82.27;100112.36;106069;1254;60453;-73
2023/03/20 03:11:55;;;;;;;39.50;25.20;;;;;;;1.46;82.34;100112.30;105859;1254;61214;-72
2023/03/20 03:14:34;;;;;;;39.10;25.40;;;;;;;1.42;82.46;100111.64;105888;1259;75064;-70
2023/03/20 03:17:06;;;;;;;36.60;22.70;;;;;;;1.40;82.44;100110.92;106202;1251;71342;-73
2023/03/20 03:19:35;;;;;;;38.10;25.90;;;;;;;1.36;82.36;100108.23;105576;1258;72653;-73
2023/03/20 03:22:03;;;;;;;44.10;31.70;;;;;;;1.29;82.34;100105.52;105930;1254;60498;-71
2023/03/20 03:24:35;;;;;;;42.10;28.00;;;;;;;1.23;82.75;100110.27;105811;1254;61262;-70
2023/03/20 03:27:16;;;;;;;40.40;27.50;;;;;;;1.30;82.55;100108.23;105846;1256;74759;-70
2023/03/20 03:29:59;;;;;;;38.50;27.10;;;;;;;1.35;82.28;100105.63;105502;1258;71843;-70
2023/03/20 03:32:31;;;;;;;45.90;28.80;;;;;;;1.29;82.30;100103.23;105314;1253;73791;-72
2023/03/20 03:34:58;;;;;;;42.70;29.10;;;;;;;1.22;82.63;100102.15;105670;1254;60592;-71
2023/03/20 03:37:33;;;;;;;47.50;31.30;;;;;;;1.15;82.93;100103.12;105950;1254;60965;-73
2023/03/20 03:40:43;;;;;;;56.50;33.50;;;;;;;1.08;83.03;100104.93;106140;1254;74933;-73
2023/03/20 03:43:30;;;;;;;50.20;31.70;;;;;;;1.04;83.33;100102.62;105364;1265;68892;-71
2023/03/20 03:46:00;;;;;;;58.00;37.00;;;;;;;1.12;82.96;100103.48;105039;1263;72716;-72
2023/03/20 03:48:31;;;;;;;62.60;38.20;;;;;;;1.15;83.04;100107.95;105608;1257;60613;-73
2023/03/20 03:51:10;;;;;;;80.20;46.90;;;;;;;1.11;83.51;100103.17;105845;1256;60414;-69
2023/03/20 03:53:48;;;;;;;83.10;49.70;;;;;;;1.07;83.59;100098.58;105681;1257;74830;-70
2023/03/20 03:56:15;;;;;;;80.60;47.50;;;;;;;1.05;83.76;100099.38;106736;1254;70379;-71
2023/03/20 03:58:48;;;;;;;72.50;42.80;;;;;;;1.04;83.89;100100.00;108287;1253;72573;-71
2023/03/20 04:01:15;;;;;;;64.90;37.60;;;;;;;1.05;84.02;100101.16;107194;1257;60451;-75
2023/03/20 04:03:49;;;;;;;55.70;34.20;;;;;;;1.18;83.75;100100.30;106077;1260;60387;-74
2023/03/20 04:06:18;;;;;;;49.80;31.40;;;;;;;1.33;83.32;100098.64;105994;1259;75043;-76
2023/03/20 04:08:45;;;;;;;49.00;33.10;;;;;;;1.35;83.32;100102.34;105894;1259;70116;-76
2023/03/20 04:11:16;;;;;;;50.80;33.10;;;;;;;1.32;83.40;100102.70;106152;1256;72515;-72
2023/03/20 04:13:46;;;;;;;55.20;35.00;;;;;;;1.29;83.25;100100.65;105909;1254;60590;-72
2023/03/20 04:16:15;;;;;;;58.60;37.50;;;;;;;1.29;83.45;100100.12;106121;1256;60412;-73
2023/03/20 04:18:46;;;;;;;45.70;32.20;;;;;;;1.28;83.29;100093.17;106052;1257;74961;-73
2023/03/20 04:21:15;;;;;;;41.80;30.00;;;;;;;1.26;83.20;100098.91;105981;1254;71457;-76
2023/03/20 04:23:42;;;;;;;40.40;29.00;;;;;;;1.32;82.80;100098.66;105798;1257;73675;-75
2023/03/20 04:26:10;;;;;;;39.30;28.60;;;;;;;1.41;82.66;100099.52;105934;1256;60408;-76
2023/03/20 04:28:37;;;;;;;40.10;28.40;;;;;;;1.41;83.00;100098.30;105741;1254;61391;-74
2023/03/20 04:31:22;;;;;;;42.20;30.70;;;;;;;1.42;83.16;100097.56;105831;1253;74198;-76
2023/03/20 04:34:10;;;;;;;37.80;28.00;;;;;;;1.45;83.41;100104.82;105937;1256;71434;-74
2023/03/20 04:36:55;;;;;;;43.80;29.80;;;;;;;1.49;83.38;100101.96;105777;1257;73405;-71
2023/03/20 04:39:28;;;;;;;43.10;29.20;;;;;;;1.50;83.27;100102.42;105796;1253;61032;-73
2023/03/20 04:41:55;;;;;;;39.00;26.40;;;;;;;1.52;83.37;100104.73;105903;1257;61334;-74
2023/03/20 04:44:22;;;;;;;41.50;26.80;;;;;;;1.68;83.14;100109.59;106032;1254;75158;-73
2023/03/20 04:46:50;;;;;;;35.20;25.90;;;;;;;1.87;82.91;100104.84;105993;1253;70291;-74
2023/03/20 04:49:21;;;;;;;36.80;26.00;;;;;;;1.95;82.96;100099.55;105951;1257;73065;-72
2023/03/20 04:51:47;;;;;;;33.60;24.40;;;;;;;2.02;82.77;100102.75;106472;1254;62011;-74
2023/03/20 04:54:19;;;;;;;42.20;27.10;;;;;;;2.07;82.72;100100.64;106682;1256;60830;-73
2023/03/20 04:56:46;;;;;;;34.50;26.00;;;;;;;2.14;82.59;100098.77;106501;1257;72701;-73
2023/03/20 04:59:19;;;;;;;37.10;25.20;;;;;;;2.21;82.40;100101.67;105954;1254;71565;-74
2023/03/20 05:01:48;;;;;;;34.60;23.90;;;;;;;2.26;82.25;100094.98;105896;1254;73950;-74
2023/03/20 05:04:15;;;;;;;31.20;23.90;;;;;;;2.45;82.02;100094.23;106030;1254;62044;-72
2023/03/20 05:06:43;;;;;;;32.40;23.60;;;;;;;2.65;81.82;100092.46;105907;1257;61250;-75
2023/03/20 05:09:10;;;;;;;32.50;24.00;;;;;;;2.77;81.65;100096.36;105873;1254;74895;-73
2023/03/20 05:11:37;;;;;;;35.90;24.00;;;;;;;2.87;81.57;100094.91;105943;1256;71488;-75
2023/03/20 05:14:05;;;;;;;44.80;26.20;;;;;;;2.98;81.13;100093.27;106015;1257;72676;-72
2023/03/20 05:16:52;;;;;;;42.60;26.50;;;;;;;3.14;81.17;100091.05;105841;1254;60957;-74
2023/03/20 05:19:41;;;;;;;34.50;25.90;;;;;;;3.29;80.55;100094.13;105845;1256;60338;-75
2023/03/20 05:22:13;;;;;;;35.80;25.60;;;;;;;3.39;80.19;100093.77;105909;1257;74444;-75
2023/03/20 05:24:57;;;;;;;;;;;;;;;3.46;79.57;100092.96;105917;1258;71648;-71
2023/03/20 05:27:47;;;;;;;30.70;21.70;;;;;;;3.64;79.13;100093.48;105935;1256;73822;-74
2023/03/20 05:30:32;;;;;;;35.80;23.40;;;;;;;3.78;78.67;100094.36;105791;1260;61559;-73
2023/03/20 05:33:22;;;;;;;31.50;24.20;;;;;;;3.82;78.56;100093.06;105975;1254;60526;-73
2023/03/20 05:36:17;;;;;;;34.90;24.50;;;;;;;3.85;78.70;100093.48;105866;1259;75116;-73
2023/03/20 05:38:49;;;;;;;37.20;25.50;;;;;;;3.92;78.81;100093.54;105958;1254;70866;-73
2023/03/20 05:41:42;;;;;;;37.60;27.00;;;;;;;4.03;78.98;100093.19;106323;1254;73420;-73
2023/03/20 05:44:31;;;;;;;31.80;24.60;;;;;;;4.18;78.45;100087.31;105989;1257;60385;-73
2023/03/20 05:47:20;;;;;;;36.00;24.10;;;;;;;4.28;78.15;100081.12;107379;1254;61106;-75
2023/03/20 05:49:58;;;;;;;35.10;26.60;;;;;;;4.51;77.75;100088.29;108845;1256;73891;-73
2023/03/20 05:52:48;;;;;;;33.20;24.60;;;;;;;4.70;77.09;100091.48;105997;1257;71063;-74
2023/03/20 05:55:21;;;;;;;31.20;24.90;;;;;;;4.70;77.33;100092.94;105993;1254;71818;-74
2023/03/20 05:57:55;;;;;;;35.30;26.30;;;;;;;4.78;77.34;100098.95;105915;1254;60355;-73
2023/03/20 06:00:32;;;;;;;33.80;25.50;;;;;;;4.84;77.00;100100.71;105834;1255;61484;-71
2023/03/20 06:03:18;;;;;;;36.60;26.70;;;;;;;4.88;76.92;100104.81;105909;1254;73828;-74
2023/03/20 06:05:56;;;;;;;40.90;29.40;;;;;;;4.92;76.70;100104.61;105743;1254;70265;-75
2023/03/20 06:08:23;;;;;;;51.10;39.10;;;;;;;4.97;76.52;100105.52;105917;1256;73391;-72
2023/03/20 06:10:53;;;;;;;47.10;34.40;;;;;;;5.04;76.51;100106.90;105975;1256;61093;-72
2023/03/20 06:13:20;;;;;;;51.30;37.70;;;;;;;5.15;76.53;100105.98;105769;1257;60909;-74
2023/03/20 06:15:48;;;;;;;48.30;36.50;;;;;;;5.41;75.83;100106.54;105774;1260;74508;-71
2023/03/20 06:18:16;;;;;;;53.40;40.00;;;;;;;5.65;75.30;100109.45;106047;1256;70172;-74
2023/03/20 06:20:45;;;;;;;41.00;31.90;;;;;;;5.78;74.71;100113.42;105879;1258;73826;-78
2023/03/20 06:23:13;;;;;;;40.80;31.70;;;;;;;5.87;74.24;100111.48;105975;1254;61286;-77
2023/03/20 06:25:40;;;;;;;42.10;31.30;;;;;;;5.97;73.94;100114.67;105957;1252;61402;-76
2023/03/20 06:28:07;;;;;;;42.40;31.70;;;;;;;6.09;73.70;100118.48;106066;1256;73625;-74
2023/03/20 06:30:39;;;;;;;44.40;33.70;;;;;;;6.22;73.51;100120.20;106037;1257;71237;-77
2023/03/20 06:33:07;;;;;;;43.80;32.10;;;;;;;6.37;73.12;100118.04;106287;1256;72996;-76
2023/03/20 06:35:41;;;;;;;42.80;33.70;;;;;;;6.53;72.52;100112.58;105932;1260;60471;-74
2023/03/20 06:38:08;;;;;;;42.30;32.60;;;;;;;6.68;71.73;100112.85;106061;1254;61122;-73
2023/03/20 06:40:35;;;;;;;45.00;34.70;;;;;;;6.79;71.14;100110.15;106616;1253;74833;-77
2023/03/20 06:43:02;;;;;;;45.80;33.80;;;;;;;6.89;70.66;100105.95;106920;1257;71208;-74
2023/03/20 06:45:38;;;;;;;50.80;37.20;;;;;;;6.99;70.27;100106.44;106707;1256;73897;-74
2023/03/20 06:48:12;;;;;;;50.60;38.20;;;;;;;7.09;69.88;100105.75;105992;1255;60442;-75
2023/03/20 06:50:40;;;;;;;48.90;37.40;;;;;;;7.16;69.56;100104.23;106097;1260;61353;-75
2023/03/20 06:53:07;;;;;;;57.80;42.30;;;;;;;7.22;69.22;100107.71;106144;1257;72761;-73
2023/03/20 06:55:58;;;;;;;54.70;40.80;;;;;;;7.30;69.44;100109.34;106152;1254;69582;-75
2023/03/20 06:58:24;;;;;;;55.70;42.60;;;;;;;7.37;69.44;100109.26;106298;1254;73686;-77
2023/03/20 07:00:53;;;;;;;57.30;42.90;;;;;;;7.45;69.26;100109.54;106194;1254;60479;-73
2023/03/20 07:03:20;;;;;;;50.00;40.80;;;;;;;7.55;68.91;100109.71;105986;1252;61597;-74
2023/03/20 07:05:49;;;;;;;55.60;43.50;;;;;;;7.64;68.75;100108.33;105859;1259;73141;-73
2023/03/20 07:08:17;;;;;;;55.80;41.90;;;;;;;7.76;68.53;100105.71;105869;1257;69971;-74
2023/03/20 07:10:45;;;;;;;55.40;42.10;;;;;;;7.86;67.92;100100.16;105858;1261;73564;-73
2023/03/20 07:13:13;;;;;;;57.60;41.60;;;;;;;7.98;67.69;100096.81;105957;1259;62161;-74
2023/03/20 07:16:02;;;;;;;61.70;41.80;;;;;;;8.14;67.13;100092.32;105935;1257;61567;-71
2023/03/20 07:18:37;;;;;;;55.80;41.30;;;;;;;8.30;66.56;100092.91;105767;1261;74891;-73
2023/03/20 07:21:08;;;;;;;36.40;27.00;;;;;;;8.44;65.63;100091.16;105648;1260;69958;-75
2023/03/20 07:23:37;;;;;;;44.40;32.40;;;;;;;8.50;63.60;100086.34;105969;1254;74014;-75
2023/03/20 07:26:05;;;;;;;51.80;39.90;;;;;;;8.53;63.13;100080.04;105934;1260;60434;-74
2023/03/20 07:28:34;;;;;;;54.20;39.80;;;;;;;8.59;63.59;100081.38;105777;1254;61695;-73
2023/03/20 07:31:24;;;;;;;47.30;37.70;;;;;;;8.69;63.83;100080.48;106014;1256;74934;-73
2023/03/20 07:34:05;;;;;;;42.80;34.70;;;;;;;8.75;63.44;100081.29;105853;1260;70482;-77
2023/03/20 07:36:34;;;;;;;46.90;35.40;;;;;;;8.79;63.37;100079.78;107411;1254;73658;-79
2023/03/20 07:39:01;;;;;;;42.40;32.30;;;;;;;8.83;63.08;100082.05;108787;1254;58542;-80
2023/03/20 07:41:29;;;;;;;35.70;23.40;;;;;;;8.92;62.48;100083.01;107150;1254;60421;-76
2023/03/20 07:44:06;;;;;;;31.90;21.60;;;;;;;9.02;61.00;100083.45;106374;1254;73850;-77
2023/03/20 07:46:49;;;;;;;34.90;21.30;;;;;;;9.09;59.40;100076.23;106162;1257;71047;-75
2023/03/20 07:49:19;;;;;;;36.70;21.80;;;;;;;9.12;58.76;100074.73;106596;1254;73437;-78
2023/03/20 07:51:48;;;;;;;33.70;22.30;;;;;;;9.11;57.94;100072.30;107275;1253;61311;-79
2023/03/20 07:54:15;;;;;;;37.10;22.50;;;;;;;9.12;58.33;100072.20;107144;1253;61558;-77
2023/03/20 07:56:43;;;;;;;27.90;19.60;;;;;;;9.18;57.99;100068.13;106778;1254;74849;-77
2023/03/20 07:59:11;;;;;;;30.30;18.90;;;;;;;9.26;57.52;100066.77;106119;1255;71991;-77
2023/03/20 08:01:38;;;;;;;33.80;19.50;;;;;;;9.33;56.93;100064.85;106206;1257;74081;-77
2023/03/20 08:04:05;;;;;;;39.60;20.20;;;;;;;9.36;56.23;100061.90;106266;1254;61355;-76
2023/03/20 08:06:35;;;;;;;31.10;18.70;;;;;;;9.40;56.39;100058.27;107279;1254;61808;-75
2023/03/20 08:09:02;;;;;;;35.50;19.30;;;;;;;9.48;55.93;100055.60;106492;1260;73783;-78
2023/03/20 08:11:33;;;;;;;37.50;21.20;;;;;;;9.57;55.53;100060.52;105783;1259;71438;-79
2023/03/20 08:14:03;;;;;;;29.70;19.50;;;;;;;9.59;54.98;100066.30;105965;1254;73607;-78
2023/03/20 08:16:30;;;;;;;31.10;18.50;;;;;;;9.61;54.80;100062.93;105855;1254;61257;-78
2023/03/20 08:19:00;;;;;;;25.60;17.80;;;;;;;9.72;54.10;100062.54;105908;1258;60427;-78
2023/03/20 08:21:28;;;;;;;30.10;18.10;;;;;;;9.81;54.04;100061.48;105956;1255;73855;-78
2023/03/20 08:23:56;;;;;;;20.50;16.90;;;;;;;9.91;53.70;100061.16;105992;1254;69668;-78
2023/03/20 08:26:24;;;;;;;22.00;16.70;;;;;;;9.96;52.61;100058.87;105995;1254;73855;-79
2023/03/20 08:28:51;;;;;;;24.40;18.80;;;;;;;9.89;52.19;100062.10;106029;1257;61022;-77
2023/03/20 08:31:19;;;;;;;28.70;18.30;;;;;;;9.78;52.93;100060.20;108015;1254;61605;-77
2023/03/20 08:33:47;;;;;;;25.40;18.30;;;;;;;9.82;53.52;100059.41;109256;1253;72614;-78
2023/03/20 08:36:14;;;;;;;29.10;19.80;;;;;;;9.99;53.31;100059.61;106990;1257;68811;-79
2023/03/20 08:38:53;;;;;;;32.70;20.40;;;;;;;10.23;52.71;100059.52;106092;1256;73879;-79
2023/03/20 08:41:21;;;;;;;28.80;20.30;;;;;;;10.42;52.46;100058.80;106216;1254;61531;-77
2023/03/20 08:43:48;;;;;;;33.90;21.70;;;;;;;10.53;52.43;100053.48;105824;1254;60354;-77
2023/03/20 08:46:15;;;;;;;30.90;21.70;;;;;;;10.64;52.23;100050.34;106000;1254;74934;-77
2023/03/20 08:48:42;;;;;;;37.20;22.00;;;;;;;10.79;52.04;100046.27;105906;1260;69736;-79
2023/03/20 08:51:13;;;;;;;27.20;18.40;;;;;;;10.99;51.47;100043.97;106378;1253;72334;-77
2023/03/20 08:53:41;;;;;;;29.10;18.50;;;;;;;11.21;50.93;100042.58;106508;1255;61242;-77
2023/03/20 08:56:08;;;;;;;32.90;18.50;;;;;;;11.41;50.35;100039.27;105859;1257;60531;-77
2023/03/20 08:58:36;;;;;;;27.00;18.10;;;;;;;11.61;50.07;100039.09;105872;1257;74643;-78
2023/03/20 09:01:04;;;;;;;31.40;18.60;;;;;;;11.77;48.85;100037.81;105880;1260;71506;-76
2023/03/20 09:03:32;;;;;;;33.70;20.40;;;;;;;11.88;48.97;100033.02;105916;1258;71873;-77
2023/03/20 09:06:00;;;;;;;28.20;18.30;;;;;;;12.04;48.88;100034.64;105865;1255;60600;-76
2023/03/20 09:08:28;;;;;;;25.80;16.70;;;;;;;12.24;47.63;100035.90;106000;1253;60577;-77
2023/03/20 09:10:58;;;;;;;23.60;16.50;;;;;;;12.29;46.97;100033.34;106057;1257;73921;-78
2023/03/20 09:13:25;;;;;;;27.70;17.20;;;;;;;12.47;47.13;100032.64;105968;1254;70296;-74
2023/03/20 09:15:54;;;;;;;20.90;16.40;;;;;;;12.88;46.80;100027.67;105910;1254;73747;-73
2023/03/20 09:18:21;;;;;;;20.20;13.70;;;;;;;13.47;45.95;100019.13;105920;1254;60857;-74
2023/03/20 09:20:55;;;;;;;15.80;11.80;;;;;;;14.10;44.41;100013.39;105862;1257;60455;-75
2023/03/20 09:23:30;;;;;;;19.40;14.10;;;;;;;14.71;43.46;100014.35;106180;1254;73878;-80
2023/03/20 09:25:58;;;;;;;17.50;13.50;;;;;;;15.26;42.25;100017.64;108610;1254;70245;-76
2023/03/20 09:28:26;;;;;;;18.10;13.90;;;;;;;15.71;41.42;100012.87;109331;1252;70740;-78
2023/03/20 09:30:57;;;;;;;15.90;14.00;;;;;;;16.22;40.85;100007.35;108301;1254;60560;-76
2023/03/20 09:33:25;;;;;;;20.10;14.20;;;;;;;16.81;39.73;100007.31;107000;1256;60443;-79
2023/03/20 09:35:52;;;;;;;16.60;12.70;;;;;;;17.19;38.98;100005.66;106807;1253;74038;-79
2023/03/20 09:38:20;;;;;;;15.40;12.30;;;;;;;17.57;38.61;100008.31;106499;1257;429848;-78
2023/03/20 09:41:37;;;;;;;19.10;14.00;;;;;;;18.26;38.06;100010.65;103356;1289;600328;-78
2023/03/20 09:44:45;;;;;;;15.30;13.70;;;;;;;18.78;36.48;100004.45;105860;1266;61137;-82
2023/03/20 09:47:46;;;;;;;16.80;13.50;;;;;;;19.04;36.34;99998.47;105864;1264;59386;-81
2023/03/20 09:50:38;;;;;;;14.60;13.00;;;;;;;19.55;35.81;99998.16;105410;1272;72349;-80
2023/03/20 09:53:23;;;;;;;15.40;12.70;;;;;;;19.99;34.98;99993.77;105761;1267;70433;-79
2023/03/20 09:55:53;;;;;;;15.20;13.40;;;;;;;20.26;34.30;99993.95;104843;1262;1180153;-78
2023/03/20 09:58:29;;;;;;;14.80;12.60;;;;;;;20.36;34.07;99991.30;105903;1263;61587;-78
2023/03/20 10:01:00;;;;;;;15.20;13.10;;;;;;;20.59;33.95;99979.20;105923;1261;60165;-79
2023/03/20 10:03:43;;;;;;;13.30;11.80;;;;;;;20.96;33.60;99971.66;106044;1260;73418;-79
2023/03/20 10:06:16;;;;;;;11.60;10.40;;;;;;;21.39;32.45;99961.09;106076;1261;70094;-78
2023/03/20 10:08:45;;;;;;;14.20;12.60;;;;;;;21.63;32.04;99970.71;105864;1263;72443;-79
2023/03/20 10:11:34;;;;;;;21.90;13.60;;;;;;;21.72;32.04;99966.65;105807;1262;60498;-76
2023/03/20 10:14:13;;;;;;;14.10;12.60;;;;;;;21.98;31.89;99969.58;106133;1265;61592;-81
2023/03/20 10:16:53;;;;;;;12.70;11.60;;;;;;;22.13;31.23;99967.47;106744;1262;74127;-79
2023/03/20 10:19:30;;;;;;;14.60;13.20;;;;;;;21.94;31.17;99965.45;107799;1260;69210;-81
2023/03/20 10:22:07;;;;;;;14.60;13.20;;;;;;;21.93;31.54;99957.44;108964;1263;71726;-81
2023/03/20 10:24:49;;;;;;;14.50;12.60;;;;;;;22.38;31.15;99948.84;107984;1265;59757;-78
2023/03/20 10:27:22;;;;;;;14.60;12.90;;;;;;;22.75;30.56;99949.17;106279;1259;61313;-78
2023/03/20 10:30:12;;;;;;;14.60;13.20;;;;;;;22.97;30.51;99945.38;106730;1253;74341;-80
2023/03/20 10:33:14;;;;;;;15.20;13.50;;;;;;;23.31;30.45;99936.14;106870;1254;69945;-81
2023/03/20 10:36:04;;;;;;;14.90;13.30;;;;;;;23.97;29.87;99930.59;106405;1254;73943;-80
2023/03/20 10:39:03;;;;;;;14.70;13.10;;;;;;;24.58;29.37;99923.26;107424;1254;59615;-80
2023/03/20 10:41:37;;;;;;;16.00;14.60;;;;;;;24.55;28.36;99914.80;107418;1254;60130;-82
2023/03/20 10:44:13;;;;;;;16.00;14.50;;;;;;;23.72;29.01;99917.05;107575;1256;74107;-79
2023/03/20 10:46:43;;;;;;;15.70;14.10;;;;;;;23.20;29.54;99914.45;107366;1256;69901;-81
2023/03/20 10:49:45;;;;;;;16.00;14.50;;;;;;;23.13;29.99;99908.65;107447;1254;72865;-81
2023/03/20 10:52:26;;;;;;;16.10;14.60;;;;;;;23.62;29.66;99909.80;106765;1257;61602;-77
2023/03/20 10:55:15;;;;;;;16.40;14.70;;;;;;;24.02;29.34;99910.73;105929;1256;60479;-77
2023/03/20 10:57:54;;;;;;;17.80;15.70;;;;;;;24.22;28.77;99911.07;105930;1255;73498;-80
2023/03/20 11:00:23;;;;;;;15.70;14.30;;;;;;;23.61;28.92;99905.89;105883;1262;69342;-80
2023/03/20 11:02:53;;;;;;;15.20;13.80;;;;;;;22.66;29.74;99894.83;106131;1259;73894;-78
2023/03/20 11:05:23;;;;;;;15.00;13.60;;;;;;;22.08;30.38;99891.14;106366;1254;59738;-79
2023/03/20 11:08:07;;;;;;;16.30;14.10;;;;;;;21.87;30.89;99894.02;106875;1254;60204;-75
2023/03/20 11:10:35;;;;;;;17.20;15.00;;;;;;;21.89;31.18;99892.38;107871;1254;73779;-80
2023/03/20 11:13:30;;;;;;;16.50;15.00;;;;;;;21.80;31.12;99889.74;108357;1254;68666;-78
2023/03/20 11:16:10;;;;;;;17.30;14.80;;;;;;;21.45;31.54;99881.95;107594;1254;71955;-77
2023/03/20 11:18:40;;;;;;;16.10;14.40;;;;;;;21.11;31.95;99886.58;107055;1257;60059;-78
2023/03/20 11:21:25;;;;;;;16.00;14.40;;;;;;;20.87;32.05;99878.87;106856;1254;59972;-83
2023/03/20 11:23:54;;;;;;;15.80;14.20;;;;;;;20.66;32.40;99870.67;108098;1260;72867;-82
2023/03/20 11:26:43;;;;;;;15.10;13.70;;;;;;;20.75;32.33;99864.69;107698;1258;70292;-81
2023/03/20 11:29:20;;;;;;;14.60;12.90;;;;;;;20.77;32.06;99870.30;107209;1258;70859;-81
2023/03/20 11:31:49;;;;;;;16.10;12.80;;;;;;;20.40;32.40;99874.89;106052;1261;60026;-79
2023/03/20 11:34:20;;;;;;;15.50;13.90;;;;;;;20.05;32.95;99859.98;106235;1256;60231;-77
2023/03/20 11:36:58;;;;;;;12.50;11.30;;;;;;;20.08;32.90;99864.91;105949;1260;72732;-79
2023/03/20 11:39:38;;;;;;;13.40;11.80;;;;;;;20.20;32.75;99866.38;105835;1259;70758;-80
2023/03/20 11:42:24;;;;;;;13.10;11.80;;;;;;;20.24;32.65;99858.98;105771;1256;71963;-77